createdAt,value
2022-09-23T00:00:58.087Z,14.83
2022-09-23T00:03:24.469Z,15.10
2022-09-23T00:05:59.285Z,14.53
2022-09-23T00:08:25.832Z,15.67
2022-09-23T00:10:52.201Z,14.87
2022-09-23T00:13:18.795Z,15.77
2022-09-23T00:15:45.167Z,15.47
2022-09-23T00:18:11.521Z,15.07
2022-09-23T00:20:37.918Z,15.37
2022-09-23T00:23:04.309Z,15.60
2022-09-23T00:25:30.676Z,15.03
2022-09-23T00:27:57.196Z,14.80
2022-09-23T00:30:25.212Z,15.13
2022-09-23T00:32:51.683Z,16.13
2022-09-23T00:35:18.179Z,15.47
2022-09-23T00:37:44.534Z,15.93
2022-09-23T00:40:10.987Z,14.77
2022-09-23T00:42:37.538Z,14.97
2022-09-23T00:45:04.524Z,14.87
2022-09-23T00:47:53.676Z,16.43
2022-09-23T00:50:28.804Z,15.30
2022-09-23T00:52:58.214Z,16.20
2022-09-23T00:55:36.531Z,16.80
2022-09-23T00:58:04.901Z,15.67
2022-09-23T01:00:31.392Z,16.17
2022-09-23T01:02:57.761Z,15.77
2022-09-23T01:05:24.188Z,16.07
2022-09-23T01:07:50.895Z,16.97
2022-09-23T01:10:17.878Z,16.23
2022-09-23T01:13:07.704Z,16.17
2022-09-23T01:15:48.401Z,17.43
2022-09-23T01:18:40.396Z,17.07
2022-09-23T01:21:18.518Z,16.40
2022-09-23T01:24:19.038Z,15.87
2022-09-23T01:27:02.432Z,15.83
2022-09-23T01:29:56.854Z,16.50
2022-09-23T01:33:02.389Z,15.73
2022-09-23T01:35:42.438Z,15.17
2022-09-23T01:38:31.517Z,16.80
2022-09-23T01:41:14.218Z,16.43
2022-09-23T01:43:54.186Z,15.47
2022-09-23T01:46:26.117Z,16.77
2022-09-23T01:49:04.756Z,16.17
2022-09-23T01:51:37.364Z,16.53
2022-09-23T01:54:13.338Z,16.73
2022-09-23T01:56:45.961Z,16.43
2022-09-23T01:59:18.566Z,17.87
2022-09-23T02:01:57.303Z,18.10
2022-09-23T02:04:32.642Z,17.63
2022-09-23T02:07:04.134Z,17.30
2022-09-23T02:09:41.114Z,17.47
2022-09-23T02:12:16.632Z,17.37
2022-09-23T02:14:53.087Z,17.37
2022-09-23T02:17:46.332Z,18.50
2022-09-23T02:20:15.888Z,19.43
2022-09-23T02:23:02.060Z,18.93
2022-09-23T02:25:40.525Z,20.10
2022-09-23T02:28:12.121Z,20.10
2022-09-23T02:30:45.189Z,19.90
2022-09-23T02:33:21.906Z,18.50
2022-09-23T02:36:03.518Z,21.13
2022-09-23T02:38:46.358Z,20.47
2022-09-23T02:41:29.015Z,22.17
2022-09-23T02:44:08.895Z,21.40
2022-09-23T02:46:37.003Z,20.60
2022-09-23T02:49:11.480Z,23.03
2022-09-23T02:51:39.621Z,22.10
2022-09-23T02:54:09.256Z,22.03
2022-09-23T02:56:35.628Z,21.43
2022-09-23T02:59:02.229Z,22.93
2022-09-23T03:01:47.446Z,23.97
2022-09-23T03:04:41.793Z,23.10
2022-09-23T03:07:39.620Z,23.43
2022-09-23T03:10:21.217Z,22.03
2022-09-23T03:13:02.843Z,22.57
2022-09-23T03:15:54.650Z,21.20
2022-09-23T03:18:31.553Z,22.37
2022-09-23T03:21:05.055Z,23.73
2022-09-23T03:23:35.475Z,24.03
2022-09-23T03:26:08.141Z,22.43
2022-09-23T03:28:38.854Z,23.10
2022-09-23T03:31:06.018Z,23.07
2022-09-23T03:33:34.180Z,24.00
2022-09-23T03:36:06.598Z,22.60
2022-09-23T03:38:39.638Z,24.43
2022-09-23T03:41:11.020Z,25.37
2022-09-23T03:43:39.175Z,23.97
2022-09-23T03:46:05.887Z,24.90
2022-09-23T03:48:32.844Z,24.53
2022-09-23T03:51:01.299Z,25.77
2022-09-23T03:53:27.693Z,24.13
2022-09-23T03:55:54.123Z,24.17
2022-09-23T03:58:20.513Z,24.37
2022-09-23T04:00:46.962Z,26.30
2022-09-23T04:03:13.378Z,26.07
2022-09-23T04:05:39.723Z,25.97
2022-09-23T04:08:08.033Z,25.20
2022-09-23T04:10:34.428Z,26.73
2022-09-23T04:13:00.781Z,26.03
2022-09-23T04:15:27.193Z,24.93
2022-09-23T04:17:53.560Z,25.07
2022-09-23T04:20:19.916Z,25.73
2022-09-23T04:22:46.298Z,25.50
2022-09-23T04:25:12.749Z,25.97
2022-09-23T04:27:39.079Z,26.23
2022-09-23T04:30:06.137Z,26.43
2022-09-23T04:32:32.501Z,26.87
2022-09-23T04:34:58.900Z,25.77
2022-09-23T04:37:25.271Z,25.43
2022-09-23T04:39:51.653Z,25.60
2022-09-23T04:42:18.067Z,26.17
2022-09-23T04:44:44.412Z,25.33
2022-09-23T04:47:10.889Z,25.13
2022-09-23T04:49:37.278Z,24.77
2022-09-23T04:52:03.865Z,23.93
2022-09-23T04:54:30.248Z,26.50
2022-09-23T04:56:56.821Z,25.60
2022-09-23T04:59:23.316Z,25.00
2022-09-23T05:01:49.778Z,25.03
2022-09-23T05:04:16.188Z,24.60
2022-09-23T05:06:42.529Z,25.03
2022-09-23T05:09:09.067Z,24.07
2022-09-23T05:11:35.833Z,24.77
2022-09-23T05:14:02.343Z,24.63
2022-09-23T05:16:29.198Z,24.53
2022-09-23T05:18:55.628Z,23.60
2022-09-23T05:21:24.025Z,25.17
2022-09-23T05:23:52.998Z,25.53
2022-09-23T05:26:20.471Z,28.30
2022-09-23T05:28:46.961Z,23.67
2022-09-23T05:31:20.083Z,21.97
2022-09-23T05:33:52.126Z,22.57
2022-09-23T05:36:20.160Z,23.50
2022-09-23T05:38:46.975Z,24.50
2022-09-23T05:41:13.596Z,23.83
2022-09-23T05:43:40.439Z,23.53
2022-09-23T05:46:26.036Z,23.03
2022-09-23T05:48:52.421Z,23.40
2022-09-23T05:51:21.334Z,23.43
2022-09-23T05:53:48.678Z,24.50
2022-09-23T05:56:17.701Z,25.23
2022-09-23T05:58:44.614Z,23.70
2022-09-23T06:01:16.690Z,23.97
2022-09-23T06:03:46.546Z,24.07
2022-09-23T06:06:14.367Z,23.97
2022-09-23T06:08:41.841Z,24.10
2022-09-23T06:11:08.683Z,24.47
2022-09-23T06:13:36.061Z,22.83
2022-09-23T06:16:03.260Z,22.57
2022-09-23T06:18:29.804Z,22.67
2022-09-23T06:20:56.247Z,22.93
2022-09-23T06:23:25.553Z,22.70
2022-09-23T06:25:53.039Z,21.93
2022-09-23T06:28:19.471Z,22.03
2022-09-23T06:30:45.886Z,21.20
2022-09-23T06:33:12.365Z,21.53
2022-09-23T06:35:38.945Z,21.20
2022-09-23T06:38:05.562Z,20.90
2022-09-23T06:40:32.229Z,21.97
2022-09-23T06:43:00.757Z,21.00
2022-09-23T06:45:27.947Z,20.77
2022-09-23T06:47:55.798Z,20.70
2022-09-23T06:50:22.730Z,19.70
2022-09-23T06:52:53.415Z,20.90
2022-09-23T06:55:19.791Z,19.87
2022-09-23T06:57:46.193Z,20.23
2022-09-23T07:00:13.311Z,20.80
2022-09-23T07:02:41.092Z,19.93
2022-09-23T07:05:08.657Z,19.17
2022-09-23T07:07:35.711Z,20.07
2022-09-23T07:10:02.335Z,19.40
2022-09-23T07:12:28.697Z,19.20
2022-09-23T07:14:55.171Z,19.07
2022-09-23T07:17:21.525Z,18.93
2022-09-23T07:19:47.857Z,18.27
2022-09-23T07:22:14.331Z,18.47
2022-09-23T07:24:40.758Z,17.80
2022-09-23T07:27:08.418Z,20.88
2022-09-23T07:29:45.766Z,18.70
2022-09-23T07:32:14.639Z,17.93
2022-09-23T07:34:41.471Z,19.03
2022-09-23T07:37:09.295Z,19.27
2022-09-23T07:39:40.257Z,18.23
2022-09-23T07:42:12.285Z,18.13
2022-09-23T07:44:39.361Z,18.27
2022-09-23T07:47:08.208Z,17.87
2022-09-23T07:49:35.611Z,17.90
2022-09-23T07:52:07.216Z,17.30
2022-09-23T07:54:33.593Z,18.13
2022-09-23T07:57:00.355Z,17.13
2022-09-23T07:59:26.739Z,18.23
2022-09-23T08:01:54.036Z,18.07
2022-09-23T08:04:29.897Z,16.53
2022-09-23T08:06:59.195Z,15.87
2022-09-23T08:09:45.842Z,16.27
2022-09-23T08:12:16.348Z,15.23
2022-09-23T08:14:43.185Z,15.03
2022-09-23T08:17:09.723Z,14.60
2022-09-23T08:19:36.168Z,15.40
2022-09-23T08:22:02.603Z,15.37
2022-09-23T08:24:29.141Z,13.93
2022-09-23T08:26:57.939Z,13.30
2022-09-23T08:29:25.883Z,12.40
2022-09-23T08:31:53.577Z,13.33
2022-09-23T08:34:21.890Z,13.33
2022-09-23T08:36:48.324Z,12.67
2022-09-23T08:39:17.290Z,12.60
2022-09-23T08:42:11.576Z,13.10
2022-09-23T08:44:49.535Z,12.60
2022-09-23T08:47:18.229Z,13.00
2022-09-23T08:49:50.452Z,13.50
2022-09-23T08:52:28.954Z,13.00
2022-09-23T08:54:55.726Z,13.70
2022-09-23T08:57:41.613Z,14.07
2022-09-23T09:00:17.161Z,13.60
2022-09-23T09:02:43.789Z,13.83
2022-09-23T09:05:12.766Z,13.77
2022-09-23T09:07:45.629Z,14.30
2022-09-23T09:10:36.611Z,13.17
2022-09-23T09:13:11.045Z,12.90
2022-09-23T09:16:02.411Z,14.03
2022-09-23T09:18:38.013Z,13.87
2022-09-23T09:21:18.710Z,13.70
2022-09-23T09:23:56.689Z,13.77
2022-09-23T09:26:36.136Z,14.67
2022-09-23T09:29:34.432Z,14.67
2022-09-23T09:32:16.733Z,14.03
2022-09-23T09:35:02.010Z,13.67
2022-09-23T09:37:43.392Z,13.07
2022-09-23T09:40:18.828Z,14.00
2022-09-23T09:42:53.064Z,13.30
2022-09-23T09:45:43.554Z,13.40
2022-09-23T09:48:25.709Z,12.80
2022-09-23T09:50:59.576Z,13.23
2022-09-23T09:53:34.922Z,13.90
2022-09-23T09:56:06.382Z,13.83
2022-09-23T09:58:48.940Z,13.33
2022-09-23T10:01:51.378Z,12.90
2022-09-23T10:04:38.593Z,13.03
2022-09-23T10:07:26.186Z,12.83
2022-09-23T10:09:58.330Z,13.37
2022-09-23T10:12:47.041Z,13.47
2022-09-23T10:15:32.463Z,14.07
2022-09-23T10:17:59.896Z,13.27
2022-09-23T10:20:35.750Z,13.63
2022-09-23T10:23:12.903Z,13.27
2022-09-23T10:25:42.793Z,14.70
2022-09-23T10:28:39.567Z,13.93
2022-09-23T10:31:22.381Z,13.17
2022-09-23T10:33:56.279Z,13.13
2022-09-23T10:36:26.251Z,13.37
2022-09-23T10:38:59.879Z,13.60
2022-09-23T10:41:43.329Z,12.50
2022-09-23T10:44:20.043Z,13.83
2022-09-23T10:47:04.261Z,14.13
2022-09-23T10:49:49.318Z,13.23
2022-09-23T10:52:56.990Z,14.43
2022-09-23T10:55:48.026Z,13.10
2022-09-23T10:58:28.577Z,14.00
2022-09-23T11:00:55.172Z,14.90
2022-09-23T11:03:37.570Z,12.97
2022-09-23T11:06:09.664Z,14.17
2022-09-23T11:08:54.155Z,14.53
2022-09-23T11:11:23.687Z,14.30
2022-09-23T11:14:02.257Z,14.33
2022-09-23T11:16:45.735Z,14.37
2022-09-23T11:19:18.104Z,14.90
2022-09-23T11:22:06.452Z,15.20
2022-09-23T11:24:57.921Z,16.03
2022-09-23T11:27:39.775Z,14.90
2022-09-23T11:30:12.832Z,17.47
2022-09-23T11:33:12.888Z,16.20
2022-09-23T11:35:52.441Z,16.93
2022-09-23T11:38:39.285Z,16.53
2022-09-23T11:41:30.603Z,16.63
2022-09-23T11:44:06.841Z,16.60
2022-09-23T11:46:40.131Z,16.87
2022-09-23T11:49:33.756Z,16.93
2022-09-23T11:52:08.414Z,17.30
2022-09-23T11:55:19.399Z,17.33
2022-09-23T11:57:55.032Z,18.00
2022-09-23T12:00:28.076Z,18.23
2022-09-23T12:03:07.533Z,18.70
2022-09-23T12:06:01.548Z,18.90
2022-09-23T12:08:39.920Z,18.20
2022-09-23T12:11:19.641Z,19.67
2022-09-23T12:14:23.239Z,18.87
2022-09-23T12:17:14.854Z,18.70
2022-09-23T12:20:18.490Z,19.13
2022-09-23T12:22:58.722Z,19.23
2022-09-23T12:26:25.412Z,18.90
2022-09-23T12:29:02.237Z,19.33
2022-09-23T12:35:10.461Z,18.80
2022-09-23T12:37:58.638Z,18.77
2022-09-23T12:40:46.823Z,19.10
2022-09-23T12:43:38.739Z,18.70
2022-09-23T12:46:26.304Z,19.50
2022-09-23T12:48:57.411Z,19.77
2022-09-23T12:51:25.877Z,20.17
2022-09-23T12:54:17.196Z,20.63
2022-09-23T12:57:03.969Z,21.70
2022-09-23T13:00:11.543Z,20.23
2022-09-23T13:02:49.791Z,21.77
2022-09-23T13:05:38.178Z,21.47
2022-09-23T13:08:27.032Z,21.03
2022-09-23T13:11:07.881Z,22.67
2022-09-23T13:13:47.232Z,22.00
2022-09-23T13:16:27.418Z,21.80
2022-09-23T13:19:04.664Z,22.57
2022-09-23T13:21:45.614Z,21.80
2022-09-23T13:24:25.615Z,22.13
2022-09-23T13:27:21.753Z,21.27
2022-09-23T13:30:27.104Z,21.63
2022-09-23T13:33:04.929Z,23.23
2022-09-23T13:35:54.337Z,25.60
2022-09-23T13:38:25.041Z,24.57
2022-09-23T13:41:02.396Z,25.60
2022-09-23T13:43:37.603Z,25.93
2022-09-23T13:46:18.434Z,25.73
2022-09-23T13:48:47.318Z,28.40
2022-09-23T13:51:26.031Z,27.23
2022-09-23T13:53:54.567Z,28.57
2022-09-23T13:56:22.115Z,27.00
2022-09-23T13:58:50.982Z,25.90
2022-09-23T14:01:34.458Z,25.90
2022-09-23T14:04:05.191Z,26.60
2022-09-23T14:06:37.905Z,25.80
2022-09-23T14:09:06.467Z,26.73
2022-09-23T14:11:47.529Z,24.47
2022-09-23T14:14:16.411Z,26.47
2022-09-23T14:16:45.640Z,25.20
2022-09-23T14:19:22.373Z,25.97
2022-09-23T14:21:59.477Z,25.53
2022-09-23T14:24:36.737Z,25.03
2022-09-23T14:27:06.126Z,26.20
2022-09-23T14:29:42.008Z,25.37
2022-09-23T14:32:18.675Z,25.70
2022-09-23T14:35:00.506Z,23.63
2022-09-23T14:37:29.879Z,23.80
2022-09-23T14:39:57.879Z,24.67
2022-09-23T14:42:24.617Z,24.30
2022-09-23T14:44:51.009Z,24.20
2022-09-23T14:47:17.524Z,22.77
2022-09-23T14:49:49.670Z,24.43
2022-09-23T14:52:16.864Z,23.67
2022-09-23T14:54:46.413Z,23.30
2022-09-23T14:57:27.242Z,24.13
2022-09-23T15:00:09.847Z,23.77
2022-09-23T15:03:06.113Z,23.27
2022-09-23T15:05:44.439Z,24.37
2022-09-23T15:08:39.493Z,25.10
2022-09-23T15:11:08.207Z,25.20
2022-09-23T15:13:40.295Z,25.50
2022-09-23T15:16:07.686Z,27.60
2022-09-23T15:18:46.152Z,27.50
2022-09-23T15:21:19.441Z,26.40
2022-09-23T15:23:52.088Z,29.53
2022-09-23T15:26:39.964Z,29.47
2022-09-23T15:29:10.241Z,29.83
2022-09-23T15:31:36.909Z,29.60
2022-09-23T15:34:03.885Z,29.13
2022-09-23T15:36:30.330Z,29.03
2022-09-23T15:39:02.008Z,32.00
2022-09-23T15:41:30.449Z,29.17
2022-09-23T15:43:57.078Z,28.47
2022-09-23T15:46:31.158Z,30.30
2022-09-23T15:49:04.959Z,29.13
2022-09-23T15:51:31.475Z,28.10
2022-09-23T15:53:57.928Z,26.27
2022-09-23T15:56:25.141Z,27.30
2022-09-23T15:58:52.847Z,29.13
2022-09-23T16:01:31.591Z,27.33
2022-09-23T16:03:58.282Z,27.53
2022-09-23T16:06:24.725Z,27.20
2022-09-23T16:08:51.250Z,26.83
2022-09-23T16:11:19.786Z,24.50
2022-09-23T16:13:46.448Z,24.80
2022-09-23T16:16:12.996Z,24.70
2022-09-23T16:18:39.584Z,25.07
2022-09-23T16:21:06.275Z,23.33
2022-09-23T16:23:38.810Z,23.80
2022-09-23T16:26:19.439Z,23.63
2022-09-23T16:28:47.475Z,24.83
2022-09-23T16:31:14.763Z,23.17
2022-09-23T16:33:42.178Z,23.43
2022-09-23T16:36:32.298Z,23.10
2022-09-23T16:39:00.737Z,22.87
2022-09-23T16:41:29.037Z,22.93
2022-09-23T16:43:55.961Z,23.77
2022-09-23T16:46:22.793Z,23.77
2022-09-23T16:48:52.939Z,23.60
2022-09-23T16:51:27.891Z,23.30
2022-09-23T16:53:58.494Z,24.53
2022-09-23T16:56:28.614Z,24.57
2022-09-23T16:58:56.605Z,24.87
2022-09-23T17:01:25.705Z,24.63
2022-09-23T17:03:52.528Z,25.33
2022-09-23T17:06:19.059Z,26.17
2022-09-23T17:08:46.652Z,26.67
2022-09-23T17:11:12.999Z,26.50
2022-09-23T17:13:39.419Z,26.83
2022-09-23T17:16:06.023Z,26.97
2022-09-23T17:18:32.467Z,26.80
2022-09-23T17:21:04.785Z,28.97
2022-09-23T17:23:33.534Z,28.93
2022-09-23T17:25:59.972Z,27.33
2022-09-23T17:28:26.623Z,28.33
2022-09-23T17:31:01.055Z,29.73
2022-09-23T17:33:29.753Z,30.80
2022-09-23T17:35:57.284Z,32.63
2022-09-23T17:38:28.719Z,31.97
2022-09-23T17:40:57.901Z,32.90
2022-09-23T17:43:24.273Z,33.37
2022-09-23T17:45:55.779Z,34.13
2022-09-23T17:48:23.755Z,33.80
2022-09-23T17:51:19.592Z,33.23
2022-09-23T17:53:47.238Z,34.00
2022-09-23T17:56:14.895Z,33.43
2022-09-23T17:58:41.891Z,33.23
2022-09-23T18:01:10.667Z,32.60
2022-09-23T18:03:38.125Z,32.00
2022-09-23T18:06:13.766Z,33.00
2022-09-23T18:08:42.346Z,32.50
2022-09-23T18:11:18.216Z,33.53
2022-09-23T18:13:49.292Z,32.10
2022-09-23T18:16:16.196Z,33.27
2022-09-23T18:18:42.696Z,32.33
2022-09-23T18:21:09.183Z,32.37
2022-09-23T18:23:36.635Z,33.40
2022-09-23T18:26:04.133Z,31.03
2022-09-23T18:28:34.684Z,31.87
2022-09-23T18:31:01.404Z,30.90
2022-09-23T18:33:27.801Z,29.50
2022-09-23T18:35:54.158Z,30.43
2022-09-23T18:38:20.617Z,30.93
2022-09-23T18:40:54.431Z,30.47
2022-09-23T18:43:25.945Z,29.67
2022-09-23T18:46:00.485Z,29.93
2022-09-23T18:48:28.542Z,28.77
2022-09-23T18:50:54.946Z,30.07
2022-09-23T18:53:21.471Z,28.70
2022-09-23T18:55:47.823Z,30.20
2022-09-23T18:58:14.393Z,29.30
2022-09-23T19:00:40.965Z,30.00
2022-09-23T19:03:07.455Z,28.23
2022-09-23T19:05:34.177Z,28.87
2022-09-23T19:08:00.843Z,30.17
2022-09-23T19:10:27.192Z,33.10
2022-09-23T19:12:53.533Z,31.57
2022-09-23T19:15:19.944Z,30.40
2022-09-23T19:17:46.437Z,30.67
2022-09-23T19:20:12.890Z,29.53
2022-09-23T19:22:39.468Z,29.37
2022-09-23T19:25:06.570Z,28.10
2022-09-23T19:27:33.279Z,28.00
2022-09-23T19:29:59.715Z,27.40
2022-09-23T19:32:26.158Z,27.07
2022-09-23T19:34:52.722Z,28.40
2022-09-23T19:37:21.481Z,28.63
2022-09-23T19:39:47.982Z,34.17
2022-09-23T19:42:14.414Z,32.87
2022-09-23T19:44:40.871Z,32.80
2022-09-23T19:47:07.517Z,35.10
2022-09-23T19:49:33.925Z,34.10
2022-09-23T19:52:00.552Z,36.53
2022-09-23T19:54:27.176Z,34.27
2022-09-23T19:56:54.206Z,32.80
2022-09-23T19:59:20.740Z,31.47
2022-09-23T20:01:48.618Z,30.13
2022-09-23T20:04:15.796Z,30.03
2022-09-23T20:06:42.535Z,28.80
2022-09-23T20:09:09.030Z,29.77
2022-09-23T20:11:35.539Z,30.13
2022-09-23T20:14:03.131Z,29.47
2022-09-23T20:16:32.835Z,28.83
2022-09-23T20:19:00.347Z,29.90
2022-09-23T20:21:27.652Z,30.90
2022-09-23T20:23:54.104Z,31.67
2022-09-23T20:26:20.451Z,31.60
2022-09-23T20:28:47.101Z,30.00
2022-09-23T20:31:14.565Z,30.37
2022-09-23T20:33:41.088Z,29.23
2022-09-23T20:36:11.729Z,29.73
2022-09-23T20:38:38.340Z,29.93
2022-09-23T20:41:04.814Z,28.63
2022-09-23T20:43:31.240Z,28.47
2022-09-23T20:45:57.786Z,28.67
2022-09-23T20:48:24.473Z,29.60
2022-09-23T20:50:50.857Z,29.00
2022-09-23T20:53:18.753Z,30.47
2022-09-23T20:55:52.587Z,31.50
2022-09-23T20:58:19.682Z,34.85
2022-09-23T21:00:46.252Z,34.23
2022-09-23T21:03:13.653Z,35.53
2022-09-23T21:05:40.260Z,35.43
2022-09-23T21:08:06.714Z,35.27
2022-09-23T21:10:33.151Z,35.47
2022-09-23T21:12:59.944Z,35.43
2022-09-23T21:15:26.684Z,36.17
2022-09-23T21:17:53.318Z,36.40
2022-09-23T21:20:19.936Z,35.40
2022-09-23T21:22:49.728Z,35.23
2022-09-23T21:25:27.536Z,35.40
2022-09-23T21:27:54.842Z,34.37
2022-09-23T21:30:21.232Z,36.93
2022-09-23T21:32:47.660Z,34.97
2022-09-23T21:35:16.770Z,36.43
2022-09-23T21:37:43.196Z,36.80
2022-09-23T21:40:10.117Z,34.77
2022-09-23T21:42:36.868Z,36.23
2022-09-23T21:45:03.460Z,35.73
2022-09-23T21:47:29.894Z,35.07
2022-09-23T21:49:56.560Z,36.50
2022-09-23T21:52:23.058Z,35.63
2022-09-23T21:55:02.239Z,36.33
2022-09-23T21:57:45.186Z,36.07
2022-09-23T22:00:12.146Z,37.03
2022-09-23T22:02:38.591Z,36.90
2022-09-23T22:05:06.259Z,35.80
2022-09-23T22:07:35.908Z,35.73
2022-09-23T22:10:02.428Z,36.47
2022-09-23T22:12:28.836Z,35.43
2022-09-23T22:14:55.371Z,34.83
2022-09-23T22:17:21.881Z,34.30
2022-09-23T22:19:48.409Z,36.93
2022-09-23T22:22:17.365Z,36.50
2022-09-23T22:24:45.818Z,37.83
2022-09-23T22:27:14.200Z,36.13
2022-09-23T22:29:40.673Z,36.90
2022-09-23T22:32:10.836Z,37.50
2022-09-23T22:34:49.621Z,38.33
2022-09-23T22:37:20.091Z,36.37
2022-09-23T22:39:46.771Z,39.63
2022-09-23T22:42:13.569Z,39.10
2022-09-23T22:44:40.197Z,37.20
2022-09-23T22:47:07.212Z,38.73
2022-09-23T22:49:33.689Z,39.30
2022-09-23T22:52:01.239Z,39.37
2022-09-23T22:54:33.402Z,39.70
2022-09-23T22:57:00.851Z,41.40
2022-09-23T22:59:27.387Z,41.47
2022-09-23T23:01:53.884Z,40.90
2022-09-23T23:04:21.632Z,42.17
2022-09-23T23:06:47.990Z,40.63
2022-09-23T23:09:20.160Z,42.53
2022-09-23T23:11:46.783Z,40.57
2022-09-23T23:14:16.005Z,39.53
2022-09-23T23:16:43.361Z,37.63
2022-09-23T23:19:11.849Z,39.53
2022-09-23T23:21:38.347Z,37.93
2022-09-23T23:24:05.249Z,37.87
2022-09-23T23:26:33.806Z,37.70
2022-09-23T23:29:01.507Z,35.87
2022-09-23T23:31:29.205Z,35.73
2022-09-23T23:33:55.685Z,33.00
2022-09-23T23:36:25.843Z,33.70
2022-09-23T23:38:52.275Z,32.13
2022-09-23T23:41:21.036Z,32.53
2022-09-23T23:43:49.590Z,32.40
2022-09-23T23:46:16.051Z,33.10
2022-09-23T23:48:42.759Z,32.47
2022-09-23T23:51:11.092Z,33.17
2022-09-23T23:53:39.985Z,32.77
2022-09-23T23:56:09.750Z,31.43
2022-09-23T23:58:36.569Z,32.80
